首页
METAR-TAF:

METAR-TAF

机场 :

普雷斯科特, 亞利桑那州, 美国

纬度: 34-38-57N, 经度: 112-25-20W, 海拔: 1537米

当前天气观测

该预报发布于13分钟前的22:53 UTC
风速7节,风向
温度 8°C
湿度 76%
气压 1018 hPa
能見度: 16.1公里
散云层高于500英尺
多云层高于1900英尺
阴天层高于3300英尺

METAR: KPRC 212253Z 19007KT 10SM SCT005 BKN019 OVC033 08/04 A3005 RMK AO2 SLP140 T00830044

时间: 16:06 (23:06 UTC)

预报

该预报发布于4小时和3分钟前的19:03 UTC
预报有效从21日的 19点(UTC)到 22日的 18点(UTC)
风速6节,风向南转西南
能見度: 10公里
多云层高于900英尺
阴天层高于1500英尺
小阵雨
从 21日的 2200点(UTC)
风速6节,风向南转西南
能見度: 10公里
散云层高于2500英尺
多云层高于4000英尺
从 22日的 0200点(UTC)
风速5节,风向多变
能見度: 10公里
多云层高于4000英尺

TAF: KPRC 211903Z 2119/2218 20006KT P6SM -SHRA BKN009 OVC015 FM212200 21006KT P6SM SCT025 BKN040 FM220200 VRB05KT P6SM BKN040

超过4000个机场的气象观测和天气预报(METAR&TAF报告)。

可查询的气象台以黄色和红色小点在地图上表示。

将鼠标移到小点上方,可查看气象台名称。

然后点击查看天气观测和预报。

如需切换地图:点击带黑十字的绿色按钮放大地图;点击带横线的绿色按钮缩小地图;或者点击绿色箭头查看邻近地区的地图。


METAR-TAF: